Time;durP1;ratioP1;P1;durP2;ratioP2;P2;SDS_P1;SDS_P2;PMS_P1;PMS_P2;Temp;Humidity;BMP_temperature;BMP_pressure;BME280_temperature;BME280_humidity;BME280_pressure;Samples;Min_cycle;Max_cycle;Signal;HPM_P1;HPM_P2
2021/01/04 00:02:29;;;;;;;7.97;7.37;;;5.30;91.80;;;;;;5095752;28;20812;-80
2021/01/04 00:05:04;;;;;;;8.03;7.30;;;5.30;91.70;;;;;;5094808;28;21082;-80
2021/01/04 00:08:09;;;;;;;7.43;6.47;;;5.30;91.70;;;;;;5097832;28;20430;-79
2021/01/04 00:10:53;;;;;;;6.97;6.27;;;5.30;91.70;;;;;;5098502;28;20447;-79
2021/01/04 00:13:29;;;;;;;9.50;6.70;;;5.30;91.70;;;;;;5098338;28;20432;-79
2021/01/04 00:16:02;;;;;;;7.10;6.40;;;5.30;91.70;;;;;;5098514;28;20418;-80
2021/01/04 00:18:41;;;;;;;8.20;7.40;;;5.20;91.60;;;;;;5098343;28;20840;-79
2021/01/04 00:21:14;;;;;;;8.23;7.50;;;5.20;91.60;;;;;;5098401;28;20433;-79
2021/01/04 00:23:51;;;;;;;7.03;6.30;;;5.20;91.60;;;;;;5098120;28;20456;-79
2021/01/04 00:26:21;;;;;;;7.30;6.60;;;5.20;91.60;;;;;;5098212;28;20462;-79
2021/01/04 00:28:48;;;;;;;7.53;6.83;;;5.20;91.60;;;;;;5098104;28;21011;-79
2021/01/04 00:31:18;;;;;;;7.57;6.97;;;5.20;91.60;;;;;;5097703;28;20775;-79
2021/01/04 00:33:47;;;;;;;8.10;7.30;;;5.20;91.60;;;;;;5098156;28;20409;-79
2021/01/04 00:36:21;;;;;;;7.60;6.90;;;5.20;91.50;;;;;;5097923;28;20486;-79
2021/01/04 00:39:24;;;;;;;8.07;7.27;;;5.20;91.60;;;;;;5098317;28;20463;-79
2021/01/04 00:42:02;;;;;;;7.73;6.93;;;5.20;91.60;;;;;;5097991;28;20423;-79
2021/01/04 00:44:42;;;;;;;7.63;6.93;;;5.10;91.60;;;;;;5097896;28;20929;-79
2021/01/04 00:47:13;;;;;;;8.00;7.30;;;5.10;91.60;;;;;;5098165;28;20509;-79
2021/01/04 00:49:47;;;;;;;8.10;7.40;;;5.10;91.70;;;;;;5097570;28;20436;-80
2021/01/04 00:52:25;;;;;;;6.90;6.30;;;5.10;91.70;;;;;;5098089;28;20404;-79
2021/01/04 00:55:05;;;;;;;6.90;6.20;;;5.10;91.80;;;;;;5098168;28;20448;-79
2021/01/04 00:58:02;;;;;;;7.43;6.83;;;5.10;91.80;;;;;;5097268;28;20475;-79
2021/01/04 01:00:32;;;;;;;8.00;7.30;;;5.10;91.80;;;;;;5097761;28;20435;-79
2021/01/04 01:03:38;;;;;;;7.17;6.57;;;5.00;91.70;;;;;;5098407;28;20440;-80
2021/01/04 01:06:14;;;;;;;8.87;7.73;;;5.10;91.80;;;;;;5097409;28;20812;-79
2021/01/04 01:08:42;;;;;;;6.93;6.33;;;5.10;91.70;;;;;;5097446;28;20468;-79
2021/01/04 01:11:12;;;;;;;7.73;7.03;;;5.10;91.70;;;;;;5097284;28;20443;-79
2021/01/04 01:14:02;;;;;;;9.83;7.10;;;5.10;91.70;;;;;;5097763;28;20432;-80
2021/01/04 01:17:03;;;;;;;7.47;6.70;;;5.00;91.50;;;;;;5097332;28;20981;-79
2021/01/04 01:19:36;;;;;;;7.80;7.10;;;5.00;91.50;;;;;;5070185;28;20549;-79
2021/01/04 01:22:04;;;;;;;7.57;6.87;;;4.90;91.60;;;;;;5097460;28;20441;-79
2021/01/04 01:24:32;;;;;;;8.47;7.57;;;4.90;91.70;;;;;;5097527;28;20448;-80
2021/01/04 01:27:31;;;;;;;7.83;7.13;;;5.00;91.70;;;;;;5097267;28;20537;-80
2021/01/04 01:30:14;;;;;;;7.83;7.03;;;4.90;91.70;;;;;;5097886;28;20432;-79
2021/01/04 01:33:21;;;;;;;7.70;7.10;;;5.00;91.80;;;;;;5097341;28;20461;-79
2021/01/04 01:36:09;;;;;;;7.73;7.03;;;4.90;91.70;;;;;;5097216;28;20481;-80
2021/01/04 01:39:32;;;;;;;7.87;7.17;;;4.90;91.70;;;;;;5096825;28;20505;-79
2021/01/04 01:42:42;;;;;;;7.70;7.00;;;4.90;91.80;;;;;;5034017;28;20450;-79
2021/01/04 01:45:17;;;;;;;9.03;8.13;;;4.90;91.80;;;;;;5034162;28;20443;-79
2021/01/04 01:47:52;;;;;;;8.83;7.93;;;4.90;91.70;;;;;;5084050;28;20447;-79
2021/01/04 01:50:30;;;;;;;8.43;7.73;;;4.90;91.70;;;;;;5096837;28;20837;-80
2021/01/04 01:53:05;;;;;;;8.80;7.63;;;4.80;91.80;;;;;;5096579;28;20432;-80
2021/01/04 01:55:39;;;;;;;8.97;8.07;;;4.80;91.80;;;;;;5096546;28;20408;-79
2021/01/04 01:58:45;;;;;;;8.47;7.70;;;4.80;91.90;;;;;;5096617;28;20483;-79
2021/01/04 02:01:21;;;;;;;8.07;7.33;;;4.80;92.00;;;;;;5096678;28;20424;-80
2021/01/04 02:03:55;;;;;;;7.83;7.13;;;4.80;92.00;;;;;;5095949;28;20466;-80
2021/01/04 02:06:33;;;;;;;7.73;6.93;;;4.80;92.10;;;;;;5096673;28;20416;-80
2021/01/04 02:09:05;;;;;;;7.57;6.87;;;4.80;92.10;;;;;;5095879;28;20499;-80
2021/01/04 02:11:41;;;;;;;8.90;8.10;;;4.90;92.20;;;;;;5096344;28;20424;-79
2021/01/04 02:14:14;;;;;;;8.90;8.00;;;4.90;92.10;;;;;;5096842;28;20423;-79
2021/01/04 02:16:51;;;;;;;8.87;8.07;;;4.90;92.10;;;;;;5096569;28;20459;-80
2021/01/04 02:19:34;;;;;;;7.97;7.27;;;4.90;92.00;;;;;;5096139;28;20505;-80
2021/01/04 02:22:45;;;;;;;8.30;7.57;;;4.90;92.00;;;;;;5096039;28;20796;-80
2021/01/04 02:25:12;;;;;;;7.80;7.07;;;4.90;92.00;;;;;;5096590;28;20452;-80
2021/01/04 02:27:43;;;;;;;9.07;8.17;;;4.90;92.00;;;;;;5096120;28;20481;-79
2021/01/04 02:30:10;;;;;;;8.60;7.70;;;4.90;92.00;;;;;;5095758;28;20443;-79
2021/01/04 02:32:37;;;;;;;8.23;7.43;;;4.90;91.90;;;;;;5096144;28;20448;-80
2021/01/04 02:35:04;;;;;;;8.67;7.87;;;4.90;91.90;;;;;;5095924;28;20816;-79
2021/01/04 02:37:34;;;;;;;10.00;9.00;;;4.90;91.90;;;;;;5095854;28;20491;-80
2021/01/04 02:40:03;;;;;;;9.73;8.87;;;4.90;91.90;;;;;;5095741;28;20440;-79
2021/01/04 02:42:31;;;;;;;8.83;8.03;;;4.90;91.90;;;;;;5095697;28;20432;-79
2021/01/04 02:44:59;;;;;;;8.60;7.90;;;4.90;91.90;;;;;;5095471;28;20444;-80
2021/01/04 02:47:44;;;;;;;9.20;8.40;;;4.90;91.80;;;;;;5096282;28;20456;-80
2021/01/04 02:50:34;;;;;;;8.17;7.43;;;4.90;91.90;;;;;;5095506;28;20432;-80
2021/01/04 02:53:20;;;;;;;7.87;7.17;;;4.90;91.90;;;;;;5096058;28;20839;-79
2021/01/04 02:56:02;;;;;;;8.77;7.97;;;4.90;91.90;;;;;;5095354;28;20432;-79
2021/01/04 02:58:40;;;;;;;7.83;7.13;;;4.90;91.90;;;;;;5095438;28;20498;-79
2021/01/04 03:01:11;;;;;;;7.00;6.33;;;4.90;91.90;;;;;;5095318;28;20435;-79
2021/01/04 03:03:39;;;;;;;7.50;6.80;;;4.90;91.80;;;;;;5095222;28;20459;-80
2021/01/04 03:06:11;;;;;;;8.27;7.50;;;4.90;91.80;;;;;;5095635;28;20443;-79
2021/01/04 03:08:37;;;;;;;7.30;6.70;;;4.90;91.80;;;;;;5095040;28;20459;-79
2021/01/04 03:11:06;;;;;;;7.70;7.00;;;4.90;91.70;;;;;;5095395;28;20444;-79
2021/01/04 03:13:45;;;;;;;7.73;7.07;;;4.90;91.70;;;;;;5095487;28;20432;-79
2021/01/04 03:16:18;;;;;;;7.40;6.70;;;5.00;91.70;;;;;;5095413;28;20431;-79
2021/01/04 03:18:49;;;;;;;6.53;5.93;;;5.00;91.70;;;;;;5095297;28;20817;-80
2021/01/04 03:21:16;;;;;;;7.00;6.33;;;5.00;91.60;;;;;;5095427;28;20428;-80
2021/01/04 03:23:48;;;;;;;7.37;6.67;;;5.00;91.50;;;;;;5095053;28;20446;-80
2021/01/04 03:26:19;;;;;;;7.50;6.80;;;5.00;91.50;;;;;;5095281;28;20425;-80
2021/01/04 03:28:46;;;;;;;6.93;6.33;;;5.00;91.50;;;;;;5095147;28;20870;-79
2021/01/04 03:31:12;;;;;;;7.70;6.90;;;5.00;91.50;;;;;;5095401;28;20490;-79
2021/01/04 03:33:39;;;;;;;7.70;7.03;;;5.00;91.40;;;;;;5095078;28;20428;-80
2021/01/04 03:36:06;;;;;;;6.63;6.00;;;5.00;91.40;;;;;;5095374;28;20467;-79
2021/01/04 03:38:34;;;;;;;6.87;6.27;;;5.00;91.40;;;;;;5094913;28;20479;-79
2021/01/04 03:41:01;;;;;;;7.50;6.80;;;5.00;91.40;;;;;;5095216;28;20500;-79
2021/01/04 03:43:28;;;;;;;7.53;6.90;;;5.00;91.40;;;;;;5098911;28;20444;-79
2021/01/04 03:45:55;;;;;;;7.50;6.90;;;5.00;91.40;;;;;;5098923;28;20452;-79
2021/01/04 03:48:22;;;;;;;7.70;7.00;;;5.00;91.40;;;;;;5098715;28;20828;-79
2021/01/04 03:50:49;;;;;;;6.80;6.20;;;5.00;91.40;;;;;;5098816;28;20448;-79
2021/01/04 03:53:15;;;;;;;8.27;7.50;;;4.90;91.40;;;;;;5098674;28;20440;-79
2021/01/04 03:55:41;;;;;;;7.50;6.73;;;4.90;91.50;;;;;;5098499;28;20444;-79
2021/01/04 03:58:08;;;;;;;7.27;6.57;;;4.90;91.40;;;;;;5098248;28;20992;-79
2021/01/04 04:00:34;;;;;;;7.90;7.17;;;4.90;91.50;;;;;;5098882;28;20447;-79
2021/01/04 04:03:02;;;;;;;7.83;7.13;;;4.90;91.50;;;;;;5098552;28;20445;-79
2021/01/04 04:05:28;;;;;;;8.30;7.60;;;4.90;91.60;;;;;;5098193;28;20505;-79
2021/01/04 04:07:55;;;;;;;8.40;7.70;;;4.90;91.60;;;;;;5098459;28;20512;-80
2021/01/04 04:10:22;;;;;;;7.20;6.60;;;4.90;91.50;;;;;;5098183;28;21074;-80
2021/01/04 04:12:49;;;;;;;7.90;7.20;;;4.90;91.50;;;;;;5098238;28;20428;-79
2021/01/04 04:15:18;;;;;;;9.13;7.33;;;4.90;91.50;;;;;;5097850;28;20933;-79
2021/01/04 04:17:44;;;;;;;7.30;6.50;;;4.90;91.50;;;;;;5098448;28;20540;-79
2021/01/04 04:20:14;;;;;;;7.20;6.60;;;4.80;91.50;;;;;;5098493;28;20435;-79
2021/01/04 04:22:40;;;;;;;7.67;6.97;;;4.90;91.60;;;;;;5098599;28;20440;-80
2021/01/04 04:25:09;;;;;;;7.47;6.77;;;4.90;91.60;;;;;;5097934;28;20451;-79
2021/01/04 04:27:36;;;;;;;7.77;7.07;;;4.90;91.50;;;;;;5098245;28;20436;-79
2021/01/04 04:30:04;;;;;;;8.23;7.43;;;4.90;91.50;;;;;;5098302;28;20447;-79
2021/01/04 04:32:30;;;;;;;7.90;7.20;;;4.90;91.50;;;;;;5098194;28;20501;-79
2021/01/04 04:34:56;;;;;;;8.30;7.50;;;4.90;91.50;;;;;;5097934;28;20501;-79
2021/01/04 04:37:23;;;;;;;7.80;6.93;;;4.90;91.40;;;;;;5097903;28;20544;-79
2021/01/04 04:39:49;;;;;;;8.30;7.60;;;4.90;91.40;;;;;;5097875;28;20464;-79
2021/01/04 04:42:16;;;;;;;7.40;6.70;;;4.80;91.40;;;;;;5098051;28;20451;-80
2021/01/04 04:44:50;;;;;;;9.53;7.83;;;4.80;91.40;;;;;;5097796;28;20452;-79
2021/01/04 04:47:29;;;;;;;9.43;8.57;;;4.80;91.40;;;;;;5097881;28;20897;-79
2021/01/04 04:50:07;;;;;;;8.30;7.20;;;4.80;91.40;;;;;;5097465;28;21020;-79
2021/01/04 04:52:57;;;;;;;7.33;6.63;;;4.80;91.40;;;;;;5097543;28;20428;-79
2021/01/04 04:55:50;;;;;;;8.60;7.90;;;4.80;91.40;;;;;;5097327;28;20448;-79
2021/01/04 04:58:34;;;;;;;8.77;7.20;;;4.80;91.40;;;;;;5097470;28;20491;-79
2021/01/04 05:01:15;;;;;;;8.37;7.57;;;4.90;91.50;;;;;;5097483;28;20439;-79
2021/01/04 05:04:07;;;;;;;8.07;7.37;;;4.90;91.40;;;;;;5097437;28;20552;-79
2021/01/04 05:06:41;;;;;;;8.53;7.80;;;4.90;91.40;;;;;;5097712;28;20439;-79
2021/01/04 05:09:35;;;;;;;7.70;6.90;;;4.80;91.80;;;;;;5097341;28;20562;-80
2021/01/04 05:12:07;;;;;;;8.53;7.67;;;4.90;91.50;;;;;;5097507;28;20819;-80
2021/01/04 05:14:38;;;;;;;7.23;6.63;;;4.90;91.40;;;;;;5097333;28;20428;-79
2021/01/04 05:17:25;;;;;;;8.40;7.60;;;4.80;91.40;;;;;;5096942;28;20984;-79
2021/01/04 05:20:09;;;;;;;6.73;6.13;;;4.90;91.50;;;;;;5096972;28;20463;-80
2021/01/04 05:23:05;;;;;;;8.20;7.30;;;4.90;91.40;;;;;;5097278;28;20427;-79
2021/01/04 05:26:10;;;;;;;8.17;6.93;;;4.90;91.40;;;;;;5086287;28;20462;-79
2021/01/04 05:29:16;;;;;;;7.33;6.63;;;4.80;91.50;;;;;;5096823;28;20459;-80
2021/01/04 05:31:59;;;;;;;7.53;6.87;;;4.80;91.60;;;;;;5096545;28;20431;-79
2021/01/04 05:34:34;;;;;;;6.77;6.13;;;4.80;91.60;;;;;;5096732;28;20408;-79
2021/01/04 05:37:24;;;;;;;6.90;6.30;;;4.80;91.60;;;;;;5096632;28;20512;-80
2021/01/04 05:40:17;;;;;;;7.63;6.33;;;4.80;91.60;;;;;;5096647;28;20468;-79
2021/01/04 05:42:56;;;;;;;7.30;6.60;;;4.90;91.70;;;;;;5096818;28;20432;-79
2021/01/04 05:45:27;;;;;;;6.80;6.20;;;4.90;91.60;;;;;;5096679;28;20435;-80
2021/01/04 05:48:11;;;;;;;7.40;6.73;;;4.90;91.60;;;;;;5096380;28;20467;-80
2021/01/04 05:50:45;;;;;;;7.43;6.70;;;4.90;91.60;;;;;;5096193;28;20431;-80
2021/01/04 05:53:12;;;;;;;7.43;6.73;;;4.90;91.60;;;;;;5096326;28;20438;-79
2021/01/04 05:55:38;;;;;;;7.50;6.80;;;4.80;91.50;;;;;;5096511;28;20448;-79
2021/01/04 05:58:14;;;;;;;7.10;6.50;;;4.80;91.60;;;;;;5096538;28;20514;-80
2021/01/04 06:00:40;;;;;;;7.60;6.90;;;4.80;91.70;;;;;;5096542;28;20423;-80
2021/01/04 06:03:13;;;;;;;8.43;7.63;;;4.80;91.60;;;;;;5096230;28;20505;-80
2021/01/04 06:05:40;;;;;;;8.20;7.57;;;4.70;91.60;;;;;;5095366;28;20967;-79
2021/01/04 06:08:19;;;;;;;7.90;7.20;;;4.80;91.60;;;;;;5095771;28;20456;-79
2021/01/04 06:10:45;;;;;;;7.43;6.70;;;4.80;91.70;;;;;;5096156;28;20424;-80
2021/01/04 06:13:15;;;;;;;8.20;7.40;;;4.80;91.60;;;;;;5095865;28;20898;-79
2021/01/04 06:15:41;;;;;;;8.30;7.60;;;4.80;91.60;;;;;;5095910;28;20455;-79
2021/01/04 06:18:11;;;;;;;8.30;7.37;;;4.80;91.60;;;;;;5096517;28;20479;-79
2021/01/04 06:21:14;;;;;;;9.10;8.30;;;4.90;91.60;;;;;;5096999;28;20455;-80
2021/01/04 06:23:41;;;;;;;7.23;6.60;;;4.90;91.60;;;;;;5096811;28;20435;-80
2021/01/04 06:26:13;;;;;;;7.90;7.10;;;4.90;91.90;;;;;;5096632;28;20428;-79
2021/01/04 06:28:49;;;;;;;8.43;7.63;;;4.90;91.50;;;;;;5096026;28;20460;-80
2021/01/04 06:31:38;;;;;;;7.77;7.07;;;4.90;91.50;;;;;;5095609;28;20412;-80
2021/01/04 06:34:15;;;;;;;8.00;7.20;;;4.90;91.50;;;;;;5094938;28;20906;-79
2021/01/04 06:36:41;;;;;;;7.67;6.93;;;4.90;91.50;;;;;;5095442;28;20434;-80
2021/01/04 06:39:16;;;;;;;8.03;7.23;;;4.90;91.80;;;;;;5095424;28;20879;-79
2021/01/04 06:41:44;;;;;;;10.67;8.83;;;4.90;91.50;;;;;;5096384;28;20436;-80
2021/01/04 06:44:15;;;;;;;9.03;8.17;;;4.90;91.50;;;;;;5095554;28;20449;-79
2021/01/04 06:47:06;;;;;;;9.10;8.20;;;4.80;91.40;;;;;;5095994;28;20435;-79
2021/01/04 06:49:36;;;;;;;8.53;7.80;;;4.80;91.50;;;;;;5095660;28;21000;-79
2021/01/04 06:52:36;;;;;;;11.03;8.90;;;4.90;91.60;;;;;;5095761;28;20428;-80
2021/01/04 06:55:30;;;;;;;9.30;8.40;;;4.80;91.40;;;;;;5095320;28;20428;-80
2021/01/04 06:58:17;;;;;;;8.67;7.87;;;4.90;91.50;;;;;;5095480;28;20480;-80
2021/01/04 07:01:14;;;;;;;9.20;8.33;;;4.90;91.40;;;;;;5095557;28;20432;-79
2021/01/04 07:03:58;;;;;;;9.10;8.20;;;4.90;91.50;;;;;;5095506;28;20456;-80
2021/01/04 07:07:09;;;;;;;8.20;7.50;;;4.90;91.50;;;;;;5094956;28;20436;-79
2021/01/04 07:10:13;;;;;;;9.27;8.40;;;4.90;91.40;;;;;;5032116;28;21042;-79
2021/01/04 07:13:06;;;;;;;9.97;8.97;;;4.90;91.40;;;;;;5094703;28;20992;-79
2021/01/04 07:15:33;;;;;;;9.00;8.10;;;4.90;91.40;;;;;;5094589;28;20489;-80
2021/01/04 07:18:35;;;;;;;8.20;7.03;;;4.90;91.50;;;;;;5097984;28;20487;-79
2021/01/04 07:21:26;;;;;;;9.17;8.23;;;4.90;91.40;;;;;;5098724;28;20424;-79
2021/01/04 07:24:10;;;;;;;8.80;8.00;;;4.90;91.40;;;;;;5098945;28;20785;-79
2021/01/04 07:26:44;;;;;;;10.17;9.23;;;4.90;91.40;;;;;;5099154;28;20427;-79
2021/01/04 07:29:28;;;;;;;10.40;9.10;;;4.90;91.50;;;;;;5098379;28;20463;-80
2021/01/04 07:32:02;;;;;;;9.77;8.80;;;4.90;91.50;;;;;;5099085;28;20454;-80
2021/01/04 07:34:32;;;;;;;9.93;8.97;;;4.90;91.50;;;;;;5098686;28;20431;-79
2021/01/04 07:37:14;;;;;;;10.47;9.37;;;4.90;91.60;;;;;;5099986;28;20521;-80
2021/01/04 07:39:46;;;;;;;10.00;9.10;;;4.90;91.60;;;;;;5098821;28;20463;-80
2021/01/04 07:42:38;;;;;;;12.37;9.47;;;4.90;91.60;;;;;;5100496;28;20432;-79
2021/01/04 07:45:23;;;;;;;11.63;9.70;;;4.90;91.70;;;;;;5098655;28;20413;-79
2021/01/04 07:48:18;;;;;;;11.00;9.90;;;4.90;91.60;;;;;;5098595;28;20428;-80
2021/01/04 07:51:18;;;;;;;9.87;8.83;;;4.90;91.70;;;;;;5098434;28;20427;-80
2021/01/04 07:54:11;;;;;;;11.30;10.03;;;4.90;91.70;;;;;;5098539;28;20450;-80
2021/01/04 07:57:12;;;;;;;10.53;9.40;;;4.90;91.70;;;;;;5098086;28;20455;-80
2021/01/04 08:00:16;;;;;;;11.50;10.30;;;4.90;91.70;;;;;;5098568;28;20459;-80
2021/01/04 08:03:22;;;;;;;10.17;8.23;;;4.90;91.60;;;;;;5088974;28;20520;-80
2021/01/04 08:06:03;;;;;;;9.83;8.83;;;4.90;91.60;;;;;;5098218;28;20435;-81
2021/01/04 08:08:36;;;;;;;10.53;9.53;;;4.90;91.60;;;;;;5098763;28;20455;-81
2021/01/04 08:11:30;;;;;;;9.53;8.73;;;4.80;91.50;;;;;;5098586;28;20408;-80
2021/01/04 08:14:31;;;;;;;9.00;8.20;;;4.80;91.60;;;;;;5070881;28;20440;-81
2021/01/04 08:17:02;;;;;;;10.40;9.40;;;4.80;91.70;;;;;;5097790;28;20427;-80
2021/01/04 08:19:30;;;;;;;9.60;8.60;;;4.80;91.70;;;;;;5098175;28;20455;-80
2021/01/04 08:22:08;;;;;;;11.33;9.70;;;4.90;91.70;;;;;;5098039;28;20432;-80
2021/01/04 08:24:40;;;;;;;9.87;8.87;;;4.90;91.70;;;;;;5097350;28;20428;-80
2021/01/04 08:27:26;;;;;;;9.53;8.63;;;4.90;91.60;;;;;;5097095;28;20425;-80
2021/01/04 08:30:04;;;;;;;9.97;8.97;;;4.90;91.50;;;;;;5098209;28;20495;-79
2021/01/04 08:32:34;;;;;;;10.27;9.20;;;5.00;91.60;;;;;;5097877;28;20428;-80
2021/01/04 08:35:10;;;;;;;9.47;8.57;;;5.00;91.50;;;;;;5097370;28;20443;-79
2021/01/04 08:37:39;;;;;;;9.47;8.47;;;5.00;91.60;;;;;;5097825;28;20468;-82
2021/01/04 08:40:25;;;;;;;9.33;8.43;;;5.00;91.60;;;;;;5097482;28;20432;-80
2021/01/04 08:43:04;;;;;;;9.87;8.90;;;4.90;91.60;;;;;;5097828;28;20415;-79
2021/01/04 08:45:34;;;;;;;9.80;8.80;;;4.90;91.60;;;;;;5097693;28;20421;-80
2021/01/04 08:48:13;;;;;;;9.73;8.77;;;4.90;91.60;;;;;;5097613;28;20452;-79
2021/01/04 08:50:45;;;;;;;9.13;8.23;;;5.00;91.60;;;;;;5096951;28;20902;-80
2021/01/04 08:53:19;;;;;;;10.17;9.17;;;5.00;91.50;;;;;;5097106;28;20517;-79
2021/01/04 08:55:45;;;;;;;10.77;9.67;;;5.10;91.60;;;;;;5097396;28;20503;-80
2021/01/04 08:58:30;;;;;;;10.40;9.30;;;5.10;91.50;;;;;;5097113;28;20484;-80
2021/01/04 09:01:06;;;;;;;10.03;8.80;;;5.10;91.50;;;;;;5097804;28;20435;-80
2021/01/04 09:03:35;;;;;;;10.23;9.27;;;5.10;91.50;;;;;;5097151;28;20957;-80
2021/01/04 09:06:15;;;;;;;10.27;9.00;;;5.10;91.40;;;;;;5098972;28;20477;-80
2021/01/04 09:08:48;;;;;;;12.43;11.13;;;5.10;91.40;;;;;;5099220;28;20924;-79
2021/01/04 09:11:16;;;;;;;11.43;9.23;;;5.10;91.30;;;;;;5097983;28;20902;-79
2021/01/04 09:13:44;;;;;;;11.00;10.00;;;5.10;91.30;;;;;;5097845;28;20428;-80
2021/01/04 09:16:15;;;;;;;9.97;9.00;;;5.10;91.40;;;;;;5097668;28;20568;-79
2021/01/04 09:18:45;;;;;;;10.70;9.60;;;5.10;91.30;;;;;;5097397;28;20897;-80
2021/01/04 09:21:28;;;;;;;11.10;10.00;;;5.10;91.40;;;;;;5097114;28;20432;-79
2021/01/04 09:24:06;;;;;;;11.23;10.23;;;5.10;91.40;;;;;;5098041;28;20428;-80
2021/01/04 09:26:35;;;;;;;10.97;9.97;;;5.20;91.40;;;;;;5097898;28;20435;-81
2021/01/04 09:29:18;;;;;;;10.57;9.50;;;5.20;91.40;;;;;;5097586;28;20460;-80
2021/01/04 09:31:46;;;;;;;13.27;10.43;;;5.20;91.20;;;;;;5097847;28;20489;-80
2021/01/04 09:34:14;;;;;;;12.57;11.37;;;5.20;91.20;;;;;;5098455;28;20898;-80
2021/01/04 09:36:41;;;;;;;11.30;10.13;;;5.10;91.20;;;;;;5097075;28;20455;-80
2021/01/04 09:39:08;;;;;;;12.07;10.87;;;5.20;91.30;;;;;;5096107;28;20487;-80
2021/01/04 09:41:35;;;;;;;11.00;9.93;;;5.20;91.40;;;;;;5097119;28;20942;-81
2021/01/04 09:44:08;;;;;;;13.57;12.13;;;5.20;91.40;;;;;;5096606;28;20432;-80
2021/01/04 09:46:42;;;;;;;13.67;10.87;;;5.20;91.40;;;;;;5096503;28;20448;-80
2021/01/04 09:49:13;;;;;;;12.73;11.43;;;5.30;91.40;;;;;;5097469;28;20487;-80
2021/01/04 09:51:42;;;;;;;12.73;11.53;;;5.30;91.40;;;;;;5096875;28;20421;-81
2021/01/04 09:54:14;;;;;;;12.13;11.00;;;5.30;91.40;;;;;;5097039;28;20421;-80
2021/01/04 09:56:40;;;;;;;13.80;12.30;;;5.30;91.20;;;;;;5095793;28;20906;-81
2021/01/04 09:59:10;;;;;;;12.23;10.97;;;5.30;91.20;;;;;;5095439;28;20980;-81
2021/01/04 10:01:46;;;;;;;12.30;11.13;;;5.30;91.20;;;;;;5095728;28;20455;-80
2021/01/04 10:04:13;;;;;;;11.23;10.13;;;5.40;91.20;;;;;;5095244;28;20447;-80
2021/01/04 10:06:41;;;;;;;12.20;11.00;;;5.40;91.10;;;;;;5095877;28;20443;-81
2021/01/04 10:09:17;;;;;;;11.70;10.50;;;5.40;91.10;;;;;;5095616;28;20472;-80
2021/01/04 10:11:46;;;;;;;15.80;10.80;;;5.40;91.10;;;;;;5095984;28;20428;-80
2021/01/04 10:14:14;;;;;;;10.83;9.73;;;5.40;91.30;;;;;;5096121;28;20488;-80
2021/01/04 10:16:44;;;;;;;11.83;10.80;;;5.40;91.30;;;;;;5095399;28;20436;-80
2021/01/04 10:19:18;;;;;;;16.73;11.70;;;5.40;91.20;;;;;;5095020;28;20476;-80
2021/01/04 10:21:53;;;;;;;11.37;9.73;;;5.30;91.20;;;;;;5095463;28;20432;-80
2021/01/04 10:24:23;;;;;;;12.60;11.30;;;5.30;91.20;;;;;;5095359;28;20427;-80
2021/01/04 10:26:51;;;;;;;12.83;11.53;;;5.40;91.20;;;;;;5095349;28;20455;-81
2021/01/04 10:29:20;;;;;;;12.27;10.97;;;5.40;91.20;;;;;;5095674;28;20879;-81
2021/01/04 10:31:47;;;;;;;11.60;10.40;;;5.40;91.10;;;;;;5096522;28;20450;-82
2021/01/04 10:34:16;;;;;;;12.10;10.87;;;5.40;91.10;;;;;;5096418;28;20796;-81
2021/01/04 10:36:57;;;;;;;10.87;9.77;;;5.40;91.20;;;;;;5096214;28;20813;-81
2021/01/04 10:39:31;;;;;;;12.60;11.30;;;5.40;91.10;;;;;;5095791;28;20467;-81
2021/01/04 10:42:07;;;;;;;13.47;11.50;;;5.40;91.10;;;;;;5095943;28;20427;-81
2021/01/04 10:44:35;;;;;;;11.63;10.40;;;5.40;91.00;;;;;;5095346;28;20901;-81
2021/01/04 10:47:11;;;;;;;12.13;10.90;;;5.40;91.10;;;;;;5095757;28;20475;-80
2021/01/04 10:49:37;;;;;;;13.30;11.10;;;5.40;91.10;;;;;;5095625;28;20829;-81
2021/01/04 10:52:05;;;;;;;13.30;11.90;;;5.40;91.10;;;;;;5095903;28;20796;-81
2021/01/04 10:54:37;;;;;;;12.97;11.63;;;5.50;91.10;;;;;;5095758;28;20956;-81
2021/01/04 10:57:15;;;;;;;12.67;11.03;;;5.50;91.20;;;;;;5095419;28;20439;-81
2021/01/04 10:59:46;;;;;;;13.10;10.60;;;5.40;91.10;;;;;;5095741;28;20486;-81
2021/01/04 11:02:12;;;;;;;11.87;10.60;;;5.40;91.20;;;;;;5095450;28;20436;-81
2021/01/04 11:04:39;;;;;;;10.43;9.53;;;5.40;91.20;;;;;;5094712;28;20471;-81
2021/01/04 11:07:17;;;;;;;10.13;9.23;;;5.50;91.30;;;;;;5094921;28;20447;-81
2021/01/04 11:09:44;;;;;;;12.27;11.07;;;5.50;91.30;;;;;;5095074;28;20479;-80
2021/01/04 11:12:13;;;;;;;11.30;10.20;;;5.60;91.30;;;;;;5094516;28;20428;-80
2021/01/04 11:14:50;;;;;;;10.77;9.67;;;5.50;91.10;;;;;;5094910;28;20440;-81
2021/01/04 11:17:23;;;;;;;10.83;9.83;;;5.50;91.00;;;;;;5094671;28;20942;-81
2021/01/04 11:19:50;;;;;;;10.63;9.60;;;5.50;90.90;;;;;;5094871;28;20464;-81
2021/01/04 11:22:22;;;;;;;9.90;9.00;;;5.50;90.90;;;;;;5095120;28;20428;-81
2021/01/04 11:24:48;;;;;;;10.13;9.13;;;5.50;90.90;;;;;;5095206;28;20452;-80
2021/01/04 11:27:15;;;;;;;10.50;9.50;;;5.50;90.90;;;;;;5094800;28;20420;-80
2021/01/04 11:29:43;;;;;;;10.60;9.60;;;5.50;91.00;;;;;;5094751;28;20471;-81
2021/01/04 11:32:11;;;;;;;9.10;8.17;;;5.50;90.80;;;;;;5094982;28;20444;-81
2021/01/04 11:34:42;;;;;;;9.93;8.93;;;5.50;90.70;;;;;;5094534;28;20489;-81
2021/01/04 11:37:08;;;;;;;9.67;8.67;;;5.60;90.80;;;;;;5094914;28;20451;-81
2021/01/04 11:39:35;;;;;;;9.00;8.10;;;5.60;90.80;;;;;;5094328;28;21050;-81
2021/01/04 11:42:02;;;;;;;10.07;9.17;;;5.60;90.80;;;;;;5095156;28;20501;-82
2021/01/04 11:44:28;;;;;;;8.97;8.17;;;5.70;90.80;;;;;;5094779;28;20448;-80
2021/01/04 11:46:55;;;;;;;9.20;8.30;;;5.70;90.80;;;;;;5095216;28;20508;-81
2021/01/04 11:49:21;;;;;;;9.50;8.60;;;5.70;90.70;;;;;;5094796;28;20470;-82
2021/01/04 11:51:50;;;;;;;9.70;8.80;;;5.80;90.60;;;;;;5097901;28;20433;-82
2021/01/04 11:54:17;;;;;;;9.70;8.80;;;5.70;90.50;;;;;;5096232;28;20811;-79
2021/01/04 11:56:43;;;;;;;8.67;7.87;;;5.70;90.40;;;;;;5096818;28;20436;-80
2021/01/04 11:59:09;;;;;;;8.63;7.80;;;5.70;90.20;;;;;;5097347;28;20484;-80
2021/01/04 12:01:36;;;;;;;8.60;7.80;;;5.60;90.50;;;;;;5096806;28;20448;-81
2021/01/04 12:04:03;;;;;;;9.40;8.53;;;5.60;90.40;;;;;;5099709;28;20455;-80
2021/01/04 12:06:29;;;;;;;8.70;7.80;;;5.60;90.50;;;;;;5100251;28;20439;-80
2021/01/04 12:08:56;;;;;;;8.90;8.00;;;5.50;90.60;;;;;;5100721;28;20472;-80
2021/01/04 12:11:22;;;;;;;11.03;8.20;;;5.50;90.60;;;;;;5100327;28;20439;-80
2021/01/04 12:13:49;;;;;;;9.17;8.30;;;5.50;90.70;;;;;;5100444;28;20462;-80
2021/01/04 12:16:15;;;;;;;8.97;8.20;;;5.60;90.80;;;;;;5099612;28;20440;-80
2021/01/04 12:18:41;;;;;;;9.00;8.10;;;5.50;90.80;;;;;;5099190;28;20852;-80
2021/01/04 12:21:08;;;;;;;9.07;8.17;;;5.50;90.80;;;;;;5099467;28;20888;-80
2021/01/04 12:23:34;;;;;;;8.77;7.87;;;5.50;90.80;;;;;;5098967;28;20448;-80
2021/01/04 12:26:01;;;;;;;9.53;8.63;;;5.50;90.90;;;;;;5099294;28;20878;-80
2021/01/04 12:28:27;;;;;;;8.23;7.43;;;5.50;90.90;;;;;;5098639;28;20456;-79
2021/01/04 12:30:53;;;;;;;8.63;7.83;;;5.50;90.90;;;;;;5098816;28;20452;-80
2021/01/04 12:33:19;;;;;;;8.33;7.63;;;5.50;90.90;;;;;;5098395;28;20898;-80
2021/01/04 12:35:46;;;;;;;7.17;6.47;;;5.50;90.90;;;;;;5099384;28;20440;-80
2021/01/04 12:38:12;;;;;;;8.17;7.27;;;5.50;90.90;;;;;;5098781;28;20483;-80
2021/01/04 12:40:38;;;;;;;7.70;7.00;;;5.60;91.00;;;;;;5098818;28;20417;-79
2021/01/04 12:43:05;;;;;;;7.70;7.10;;;5.60;91.00;;;;;;5098361;28;20441;-80
2021/01/04 12:45:32;;;;;;;8.30;7.57;;;5.60;90.90;;;;;;5098001;28;20786;-80
2021/01/04 12:47:58;;;;;;;7.87;7.07;;;5.60;90.80;;;;;;5098736;28;20409;-79
2021/01/04 12:50:24;;;;;;;7.90;7.10;;;5.60;90.80;;;;;;5098034;28;20435;-80
2021/01/04 12:52:51;;;;;;;9.17;8.27;;;5.60;90.80;;;;;;5097891;28;20447;-80
2021/01/04 12:55:19;;;;;;;6.90;6.30;;;5.60;90.70;;;;;;5098362;28;20455;-79
2021/01/04 12:57:47;;;;;;;7.73;6.90;;;5.60;90.80;;;;;;5097702;28;20549;-79
2021/01/04 13:00:21;;;;;;;8.73;7.97;;;5.60;90.70;;;;;;5098031;28;20436;-80
2021/01/04 13:02:47;;;;;;;9.80;8.03;;;5.60;90.70;;;;;;5097845;28;20515;-79
2021/01/04 13:05:14;;;;;;;8.40;7.60;;;5.60;90.60;;;;;;5096940;28;20452;-80
2021/01/04 13:07:40;;;;;;;6.93;6.33;;;5.60;90.50;;;;;;5097476;28;20443;-80
2021/01/04 13:10:09;;;;;;;7.60;6.80;;;5.70;90.60;;;;;;5097646;28;20435;-80
2021/01/04 13:12:36;;;;;;;7.77;6.50;;;5.70;90.60;;;;;;5096933;28;20437;-79
2021/01/04 13:15:03;;;;;;;8.90;7.43;;;5.70;90.50;;;;;;5096887;28;20929;-80
2021/01/04 13:17:30;;;;;;;8.73;7.00;;;5.70;90.40;;;;;;5097696;28;20452;-79
2021/01/04 13:19:56;;;;;;;8.53;6.83;;;5.70;90.40;;;;;;5097308;28;20471;-79
2021/01/04 13:22:23;;;;;;;7.13;6.43;;;5.80;90.40;;;;;;5096569;28;20484;-78
2021/01/04 13:24:49;;;;;;;6.77;6.10;;;5.80;90.30;;;;;;5096230;28;20432;-80
2021/01/04 13:27:15;;;;;;;6.00;5.50;;;5.80;90.30;;;;;;5096617;28;20448;-78
2021/01/04 13:29:42;;;;;;;8.20;7.40;;;5.80;90.20;;;;;;5095947;28;20460;-79
2021/01/04 13:32:10;;;;;;;7.70;6.20;;;5.80;90.20;;;;;;5096900;28;20433;-79
2021/01/04 13:34:37;;;;;;;7.70;6.20;;;5.80;90.00;;;;;;5096701;28;20450;-78